createdAt,value
2024-04-30T00:04:17.474Z,3.97
2024-04-30T00:09:18.282Z,3.37
2024-04-30T00:14:19.048Z,4.05
2024-04-30T00:19:19.895Z,3.70
2024-04-30T00:24:20.715Z,4.37
2024-04-30T00:29:21.457Z,4.00
2024-04-30T00:34:22.214Z,4.10
2024-04-30T00:39:23.004Z,3.60
2024-04-30T00:44:23.750Z,6.53
2024-04-30T00:49:25.240Z,9.48
2024-04-30T00:54:26.156Z,6.50
2024-04-30T00:59:26.949Z,5.12
2024-04-30T01:04:28.372Z,4.82
2024-04-30T01:09:29.114Z,4.62
2024-04-30T01:14:30.320Z,4.03
2024-04-30T01:19:31.081Z,2.50
2024-04-30T01:24:31.843Z,4.37
2024-04-30T01:29:32.656Z,4.00
2024-04-30T01:34:36.359Z,7.87
2024-04-30T01:39:37.092Z,8.85
2024-04-30T01:44:37.905Z,5.53
2024-04-30T01:49:38.704Z,4.85
2024-04-30T01:54:39.458Z,7.00
2024-04-30T01:59:43.476Z,3.08
2024-04-30T02:04:49.394Z,7.05
2024-04-30T02:09:54.096Z,4.78
2024-04-30T02:14:55.025Z,8.65
2024-04-30T02:19:55.838Z,3.03
2024-04-30T02:24:56.594Z,5.87
2024-04-30T02:29:57.334Z,4.78
2024-04-30T02:34:58.077Z,3.60
2024-04-30T02:39:58.883Z,3.70
2024-04-30T02:44:59.716Z,4.72
2024-04-30T02:50:00.502Z,6.43
2024-04-30T02:55:01.392Z,3.60
2024-04-30T03:00:02.794Z,8.15
2024-04-30T03:05:03.898Z,3.40
2024-04-30T03:10:05.277Z,6.07
2024-04-30T03:15:07.010Z,5.40
2024-04-30T03:20:08.073Z,4.55
2024-04-30T03:25:08.853Z,7.15
2024-04-30T03:30:09.794Z,4.47
2024-04-30T03:35:10.567Z,3.25
2024-04-30T03:40:11.327Z,7.90
2024-04-30T03:45:12.169Z,4.53
2024-04-30T03:50:12.943Z,3.42
2024-04-30T03:55:13.700Z,7.87
2024-04-30T04:00:14.523Z,5.07
2024-04-30T04:05:15.264Z,4.78
2024-04-30T04:10:16.114Z,3.05
2024-04-30T04:15:17.069Z,3.35
2024-04-30T04:20:17.844Z,5.90
2024-04-30T04:25:18.647Z,8.18
2024-04-30T04:30:19.461Z,6.65
2024-04-30T04:35:20.212Z,7.15
2024-04-30T04:40:21.024Z,4.62
2024-04-30T04:45:21.807Z,7.53
2024-04-30T04:50:22.595Z,3.87
2024-04-30T04:55:23.401Z,4.82
2024-04-30T05:00:24.564Z,6.72
2024-04-30T05:05:25.310Z,2.80
2024-04-30T05:10:26.080Z,2.15
2024-04-30T05:15:27.003Z,6.22
2024-04-30T05:20:27.810Z,3.78
2024-04-30T05:25:28.656Z,4.55
2024-04-30T05:30:29.466Z,5.60
2024-04-30T05:35:30.235Z,8.85
2024-04-30T05:40:31.010Z,6.65
2024-04-30T05:45:31.873Z,21.52
2024-04-30T05:50:32.697Z,5.35
2024-04-30T05:55:33.505Z,6.55
2024-04-30T06:00:34.336Z,2.78
2024-04-30T06:05:35.224Z,6.78
2024-04-30T06:10:36.075Z,7.43
2024-04-30T06:15:36.994Z,6.00
2024-04-30T06:20:39.288Z,4.70
2024-04-30T06:25:40.234Z,5.30
2024-04-30T06:30:41.240Z,6.10
2024-04-30T06:35:42.021Z,4.90
2024-04-30T06:40:42.884Z,7.90
2024-04-30T06:45:43.644Z,7.10
2024-04-30T06:50:44.416Z,6.12
2024-04-30T06:55:45.209Z,4.80
2024-04-30T07:00:46.039Z,5.70
2024-04-30T07:05:47.076Z,4.80
2024-04-30T07:10:47.989Z,5.00
2024-04-30T07:15:49.004Z,2.45
2024-04-30T07:20:49.770Z,3.25
2024-04-30T07:25:50.558Z,7.90
2024-04-30T07:30:51.314Z,4.90
2024-04-30T07:35:52.066Z,3.10
2024-04-30T07:40:52.951Z,7.53
2024-04-30T07:45:53.700Z,4.18
2024-04-30T07:50:54.491Z,8.23
2024-04-30T07:55:55.217Z,4.65
2024-04-30T08:00:56.106Z,3.30
2024-04-30T08:06:01.276Z,3.12
2024-04-30T08:11:07.949Z,4.60
2024-04-30T08:16:11.667Z,9.82
2024-04-30T08:21:12.529Z,3.65
2024-04-30T08:26:13.300Z,11.20
2024-04-30T08:31:14.190Z,7.43
2024-04-30T08:36:15.012Z,5.53
2024-04-30T08:41:15.814Z,8.32
2024-04-30T08:46:16.868Z,3.00
2024-04-30T08:51:17.706Z,3.17
2024-04-30T08:56:18.715Z,5.47
2024-04-30T09:01:19.839Z,3.20
2024-04-30T09:06:20.717Z,6.70
2024-04-30T09:11:21.613Z,4.62
2024-04-30T09:16:22.644Z,5.28
2024-04-30T09:21:27.548Z,4.45
2024-04-30T09:26:28.326Z,4.10
2024-04-30T09:31:38.851Z,2.80
2024-04-30T09:36:40.435Z,6.25
2024-04-30T09:41:43.186Z,6.25
2024-04-30T09:46:44.989Z,3.90
2024-04-30T09:51:49.590Z,7.50
2024-04-30T09:56:52.682Z,5.22
2024-04-30T10:01:57.442Z,5.95
2024-04-30T10:06:58.541Z,6.20
2024-04-30T10:11:59.335Z,7.32
2024-04-30T10:17:00.820Z,5.70
2024-04-30T10:22:12.750Z,10.37
2024-04-30T10:27:24.465Z,2.90
2024-04-30T10:32:25.234Z,3.50
2024-04-30T10:37:30.209Z,9.20
2024-04-30T10:42:37.387Z,2.87
2024-04-30T10:47:38.237Z,6.10
2024-04-30T10:52:39.109Z,5.93
2024-04-30T10:57:42.434Z,8.18
2024-04-30T11:02:46.530Z,5.70
2024-04-30T11:07:58.686Z,5.87
2024-04-30T11:13:03.050Z,6.82
2024-04-30T11:18:04.316Z,7.32
2024-04-30T11:23:05.141Z,8.02
2024-04-30T11:28:06.056Z,4.47
2024-04-30T11:33:07.019Z,6.03
2024-04-30T11:38:07.954Z,3.80
2024-04-30T11:43:08.792Z,11.82
2024-04-30T11:48:09.759Z,8.57
2024-04-30T11:53:10.709Z,7.35
2024-04-30T11:58:11.944Z,6.45
2024-04-30T12:03:13.120Z,9.38
2024-04-30T12:08:13.948Z,6.85
2024-04-30T12:13:14.916Z,6.50
2024-04-30T12:18:16.095Z,8.90
2024-04-30T12:23:18.738Z,7.28
2024-04-30T12:28:20.362Z,8.93
2024-04-30T12:33:21.858Z,8.27
2024-04-30T12:38:23.580Z,6.73
2024-04-30T12:43:24.386Z,7.45
2024-04-30T12:48:25.714Z,5.60
2024-04-30T12:53:26.601Z,9.97
2024-04-30T12:58:27.442Z,6.03
2024-04-30T13:03:29.239Z,9.20
2024-04-30T13:08:30.058Z,7.87
2024-04-30T13:13:30.916Z,8.05
2024-04-30T13:18:31.791Z,12.60
2024-04-30T13:23:36.252Z,8.30
2024-04-30T13:28:37.077Z,10.27
2024-04-30T13:33:37.916Z,5.95
2024-04-30T13:38:38.899Z,11.02
2024-04-30T13:43:39.886Z,8.25
2024-04-30T13:48:40.732Z,5.75
2024-04-30T13:53:41.583Z,11.15
2024-04-30T13:58:42.415Z,12.40
2024-04-30T14:03:43.392Z,7.22
2024-04-30T14:08:44.188Z,11.38
2024-04-30T14:13:45.266Z,9.88
2024-04-30T14:18:46.526Z,14.50
2024-04-30T14:23:47.401Z,11.40
2024-04-30T14:28:48.218Z,10.63
2024-04-30T14:33:49.062Z,5.00
2024-04-30T14:38:49.847Z,12.82
2024-04-30T14:43:50.629Z,10.52
2024-04-30T14:48:51.480Z,7.82
2024-04-30T14:53:52.272Z,9.93
2024-04-30T14:58:53.101Z,12.90
2024-04-30T15:03:55.982Z,7.12
2024-04-30T15:08:56.838Z,10.90
2024-04-30T15:13:57.591Z,9.52
2024-04-30T15:18:58.505Z,14.52
2024-04-30T15:23:59.282Z,17.25
2024-04-30T15:29:00.037Z,7.25
2024-04-30T15:34:01.007Z,13.02
2024-04-30T15:39:01.838Z,12.37
2024-04-30T15:44:02.795Z,9.65
2024-04-30T15:49:03.592Z,12.40
2024-04-30T15:54:04.490Z,10.77
2024-04-30T15:59:07.643Z,17.50
2024-04-30T16:04:08.576Z,10.30
2024-04-30T16:09:09.383Z,10.85
2024-04-30T16:14:10.157Z,25.12
2024-04-30T16:19:12.208Z,7.35
2024-04-30T16:24:13.741Z,16.00
2024-04-30T16:29:14.516Z,18.70
2024-04-30T16:34:15.280Z,11.85
2024-04-30T16:39:16.117Z,16.52
2024-04-30T16:44:16.966Z,14.73
2024-04-30T16:49:17.919Z,15.07
2024-04-30T16:54:18.838Z,9.75
2024-04-30T16:59:19.634Z,19.55
2024-04-30T17:04:21.907Z,13.43
2024-04-30T17:09:23.016Z,16.77
2024-04-30T17:14:23.829Z,15.15
2024-04-30T17:19:24.731Z,13.48
2024-04-30T17:24:25.516Z,14.18
2024-04-30T17:29:26.265Z,18.12
2024-04-30T17:34:27.006Z,16.23
2024-04-30T17:39:27.804Z,10.50
2024-04-30T17:44:28.617Z,10.63
2024-04-30T17:49:29.472Z,13.15
2024-04-30T17:54:30.262Z,8.93
2024-04-30T17:59:31.032Z,14.50
2024-04-30T18:04:31.842Z,8.70
2024-04-30T18:09:32.807Z,14.95
2024-04-30T18:14:33.679Z,12.98
2024-04-30T18:19:34.581Z,12.40
2024-04-30T18:24:35.444Z,15.15
2024-04-30T18:29:36.202Z,10.45
2024-04-30T18:34:37.161Z,10.82
2024-04-30T18:39:41.063Z,7.62
2024-04-30T18:44:41.953Z,15.23
2024-04-30T18:49:43.097Z,11.48
2024-04-30T18:54:44.141Z,10.40
2024-04-30T18:59:44.884Z,10.93
2024-04-30T19:04:45.961Z,8.20
2024-04-30T19:09:46.848Z,12.37
2024-04-30T19:14:48.436Z,15.10
2024-04-30T19:19:50.913Z,7.90
2024-04-30T19:24:51.861Z,9.20
2024-04-30T19:29:52.621Z,8.32
2024-04-30T19:34:53.381Z,12.32
2024-04-30T19:39:54.333Z,13.38
2024-04-30T19:44:55.219Z,13.25
2024-04-30T19:49:55.981Z,14.85
2024-04-30T19:54:58.218Z,9.50
2024-04-30T19:59:58.995Z,8.82
2024-04-30T20:04:59.858Z,11.10
2024-04-30T20:10:00.671Z,9.45
2024-04-30T20:15:01.493Z,9.52
2024-04-30T20:20:02.632Z,5.35
2024-04-30T20:25:03.909Z,15.95
2024-04-30T20:30:08.549Z,17.27
2024-04-30T20:35:11.096Z,14.13
2024-04-30T20:40:11.981Z,16.85
2024-04-30T20:45:12.883Z,15.90
2024-04-30T20:50:13.766Z,7.53
2024-04-30T20:55:14.581Z,14.82
2024-04-30T21:00:15.840Z,17.80
2024-04-30T21:05:16.603Z,17.92
2024-04-30T21:10:17.365Z,16.52
2024-04-30T21:15:18.182Z,17.30
2024-04-30T21:20:19.224Z,12.20
2024-04-30T21:25:19.970Z,15.98
2024-04-30T21:30:20.826Z,13.48
2024-04-30T21:35:21.553Z,10.38
2024-04-30T21:40:22.337Z,16.73
2024-04-30T21:45:23.139Z,15.55
2024-04-30T21:50:23.891Z,10.15
2024-04-30T21:55:24.648Z,13.77
2024-04-30T22:00:25.505Z,18.70
2024-04-30T22:05:26.401Z,14.95
2024-04-30T22:10:27.244Z,13.85
2024-04-30T22:15:28.018Z,17.50
2024-04-30T22:20:29.839Z,11.82
2024-04-30T22:25:30.675Z,11.73
2024-04-30T22:30:31.477Z,9.75
2024-04-30T22:35:32.244Z,17.45
2024-04-30T22:40:33.087Z,11.27
2024-04-30T22:45:33.863Z,21.62
2024-04-30T22:50:35.490Z,25.33
2024-04-30T22:55:36.254Z,16.23
2024-04-30T23:00:37.056Z,12.82
2024-04-30T23:05:37.852Z,13.70
2024-04-30T23:10:38.635Z,15.38
2024-04-30T23:15:39.428Z,12.98
2024-04-30T23:20:40.362Z,11.23
2024-04-30T23:25:41.639Z,10.55
2024-04-30T23:30:42.444Z,13.98
2024-04-30T23:35:43.210Z,12.90
2024-04-30T23:40:43.957Z,17.20
2024-04-30T23:45:44.818Z,15.32
2024-04-30T23:50:45.626Z,15.30
2024-04-30T23:55:46.372Z,12.85
